sensor_id;sensor_type;location;lat;lon;timestamp;pressure;altitude;pressure_sealevel;temperature;humidity
2397;BME280;1209;48.410;9.054;2024-02-14T00:00:10;96647.44;;;3.12;100.00
2397;BME280;1209;48.410;9.054;2024-02-14T00:02:41;96654.50;;;2.99;100.00
2397;BME280;1209;48.410;9.054;2024-02-14T00:05:07;96656.50;;;2.84;100.00
2397;BME280;1209;48.410;9.054;2024-02-14T00:07:32;96649.78;;;2.81;100.00
2397;BME280;1209;48.410;9.054;2024-02-14T00:09:57;96647.47;;;3.01;100.00
2397;BME280;1209;48.410;9.054;2024-02-14T00:12:23;96652.84;;;2.64;100.00
2397;BME280;1209;48.410;9.054;2024-02-14T00:14:49;96654.38;;;2.89;100.00
2397;BME280;1209;48.410;9.054;2024-02-14T00:17:15;96657.53;;;3.04;100.00
2397;BME280;1209;48.410;9.054;2024-02-14T00:19:40;96657.91;;;2.88;100.00
2397;BME280;1209;48.410;9.054;2024-02-14T00:22:05;96665.63;;;2.99;100.00
2397;BME280;1209;48.410;9.054;2024-02-14T00:24:31;96661.78;;;2.94;100.00
2397;BME280;1209;48.410;9.054;2024-02-14T00:26:57;96658.69;;;3.11;100.00
2397;BME280;1209;48.410;9.054;2024-02-14T00:29:22;96661.41;;;2.76;100.00
2397;BME280;1209;48.410;9.054;2024-02-14T00:31:49;96671.63;;;3.00;100.00
2397;BME280;1209;48.410;9.054;2024-02-14T00:34:14;96662.22;;;2.76;100.00
2397;BME280;1209;48.410;9.054;2024-02-14T00:36:40;96660.00;;;2.94;100.00
2397;BME280;1209;48.410;9.054;2024-02-14T00:39:05;96667.13;;;2.79;100.00
2397;BME280;1209;48.410;9.054;2024-02-14T00:41:34;96675.09;;;2.76;100.00
2397;BME280;1209;48.410;9.054;2024-02-14T00:43:59;96662.69;;;2.81;100.00
2397;BME280;1209;48.410;9.054;2024-02-14T00:46:24;96663.03;;;2.77;100.00
2397;BME280;1209;48.410;9.054;2024-02-14T00:48:50;96665.16;;;2.83;100.00
2397;BME280;1209;48.410;9.054;2024-02-14T00:51:15;96658.59;;;2.68;100.00
2397;BME280;1209;48.410;9.054;2024-02-14T00:53:40;96660.81;;;2.72;100.00
2397;BME280;1209;48.410;9.054;2024-02-14T00:56:07;96667.59;;;2.73;100.00
2397;BME280;1209;48.410;9.054;2024-02-14T00:58:32;96659.53;;;3.00;100.00
2397;BME280;1209;48.410;9.054;2024-02-14T01:00:57;96667.25;;;3.11;100.00
2397;BME280;1209;48.410;9.054;2024-02-14T01:03:23;96667.00;;;3.26;100.00
2397;BME280;1209;48.410;9.054;2024-02-14T01:05:48;96658.59;;;3.01;100.00
2397;BME280;1209;48.410;9.054;2024-02-14T01:08:13;96666.06;;;3.38;100.00
2397;BME280;1209;48.410;9.054;2024-02-14T01:10:40;96657.06;;;3.32;100.00
2397;BME280;1209;48.410;9.054;2024-02-14T01:13:05;96657.25;;;3.29;100.00
2397;BME280;1209;48.410;9.054;2024-02-14T01:15:31;96658.09;;;3.19;100.00
2397;BME280;1209;48.410;9.054;2024-02-14T01:17:56;96655.88;;;3.36;100.00
2397;BME280;1209;48.410;9.054;2024-02-14T01:20:21;96662.78;;;3.25;100.00
2397;BME280;1209;48.410;9.054;2024-02-14T01:22:47;96660.84;;;3.60;100.00
2397;BME280;1209;48.410;9.054;2024-02-14T01:25:12;96657.63;;;3.36;100.00
2397;BME280;1209;48.410;9.054;2024-02-14T01:27:38;96652.75;;;3.65;100.00
2397;BME280;1209;48.410;9.054;2024-02-14T01:30:04;96647.81;;;3.62;100.00
2397;BME280;1209;48.410;9.054;2024-02-14T01:32:30;96644.84;;;3.34;100.00
2397;BME280;1209;48.410;9.054;2024-02-14T01:34:56;96643.63;;;3.50;100.00
2397;BME280;1209;48.410;9.054;2024-02-14T01:37:21;96651.19;;;3.73;100.00
2397;BME280;1209;48.410;9.054;2024-02-14T01:39:46;96646.56;;;3.88;100.00
2397;BME280;1209;48.410;9.054;2024-02-14T01:42:12;96651.84;;;3.87;100.00
2397;BME280;1209;48.410;9.054;2024-02-14T01:44:37;96647.19;;;3.69;100.00
2397;BME280;1209;48.410;9.054;2024-02-14T01:47:03;96646.94;;;3.84;100.00
2397;BME280;1209;48.410;9.054;2024-02-14T01:49:28;96655.38;;;3.86;100.00
2397;BME280;1209;48.410;9.054;2024-02-14T01:51:58;96647.25;;;3.90;100.00
2397;BME280;1209;48.410;9.054;2024-02-14T01:54:25;96646.81;;;3.85;100.00
2397;BME280;1209;48.410;9.054;2024-02-14T01:56:53;96643.81;;;3.69;100.00
2397;BME280;1209;48.410;9.054;2024-02-14T01:59:20;96632.00;;;3.55;100.00
2397;BME280;1209;48.410;9.054;2024-02-14T02:01:45;96631.84;;;3.68;100.00
2397;BME280;1209;48.410;9.054;2024-02-14T02:04:11;96616.78;;;3.73;100.00
2397;BME280;1209;48.410;9.054;2024-02-14T02:06:37;96609.72;;;3.86;100.00
2397;BME280;1209;48.410;9.054;2024-02-14T02:09:02;96610.78;;;3.84;100.00
2397;BME280;1209;48.410;9.054;2024-02-14T02:11:28;96615.13;;;4.04;100.00
2397;BME280;1209;48.410;9.054;2024-02-14T02:13:53;96613.63;;;4.01;100.00
2397;BME280;1209;48.410;9.054;2024-02-14T02:16:19;96615.19;;;4.14;100.00
2397;BME280;1209;48.410;9.054;2024-02-14T02:18:45;96623.00;;;4.02;100.00
2397;BME280;1209;48.410;9.054;2024-02-14T02:21:10;96624.97;;;3.89;100.00
2397;BME280;1209;48.410;9.054;2024-02-14T02:23:38;96628.13;;;3.93;100.00
2397;BME280;1209;48.410;9.054;2024-02-14T02:26:03;96618.72;;;3.92;100.00
2397;BME280;1209;48.410;9.054;2024-02-14T02:28:28;96620.81;;;3.98;100.00
2397;BME280;1209;48.410;9.054;2024-02-14T02:30:54;96615.31;;;3.91;100.00
2397;BME280;1209;48.410;9.054;2024-02-14T02:33:21;96615.00;;;3.85;100.00
2397;BME280;1209;48.410;9.054;2024-02-14T02:35:47;96611.09;;;3.90;100.00
2397;BME280;1209;48.410;9.054;2024-02-14T02:38:15;96613.75;;;4.00;100.00
2397;BME280;1209;48.410;9.054;2024-02-14T02:40:40;96608.81;;;4.18;100.00
2397;BME280;1209;48.410;9.054;2024-02-14T02:43:05;96605.84;;;4.22;100.00
2397;BME280;1209;48.410;9.054;2024-02-14T02:45:31;96602.31;;;4.23;100.00
2397;BME280;1209;48.410;9.054;2024-02-14T02:47:56;96606.63;;;4.34;100.00
2397;BME280;1209;48.410;9.054;2024-02-14T02:50:21;96595.41;;;4.03;100.00
2397;BME280;1209;48.410;9.054;2024-02-14T02:52:47;96586.59;;;4.05;100.00
2397;BME280;1209;48.410;9.054;2024-02-14T02:55:13;96585.81;;;4.35;100.00
2397;BME280;1209;48.410;9.054;2024-02-14T02:57:40;96595.16;;;4.27;100.00
2397;BME280;1209;48.410;9.054;2024-02-14T03:00:06;96585.06;;;4.24;100.00
2397;BME280;1209;48.410;9.054;2024-02-14T03:02:33;96580.13;;;4.41;100.00
2397;BME280;1209;48.410;9.054;2024-02-14T03:04:59;96572.97;;;4.55;100.00
2397;BME280;1209;48.410;9.054;2024-02-14T03:07:25;96581.25;;;4.49;100.00
2397;BME280;1209;48.410;9.054;2024-02-14T03:09:50;96583.94;;;4.37;100.00
2397;BME280;1209;48.410;9.054;2024-02-14T03:12:16;96577.81;;;4.38;100.00
2397;BME280;1209;48.410;9.054;2024-02-14T03:14:43;96579.19;;;4.22;100.00
2397;BME280;1209;48.410;9.054;2024-02-14T03:17:09;96571.78;;;4.28;100.00
2397;BME280;1209;48.410;9.054;2024-02-14T03:19:35;96576.88;;;4.39;100.00
2397;BME280;1209;48.410;9.054;2024-02-14T03:22:04;96580.56;;;4.47;100.00
2397;BME280;1209;48.410;9.054;2024-02-14T03:24:31;96574.66;;;4.35;100.00
2397;BME280;1209;48.410;9.054;2024-02-14T03:26:56;96581.25;;;4.49;100.00
2397;BME280;1209;48.410;9.054;2024-02-14T03:29:21;96580.31;;;4.50;100.00
2397;BME280;1209;48.410;9.054;2024-02-14T03:31:47;96590.25;;;4.54;100.00
2397;BME280;1209;48.410;9.054;2024-02-14T03:34:13;96598.59;;;4.58;100.00
2397;BME280;1209;48.410;9.054;2024-02-14T03:36:38;96602.78;;;4.28;100.00
2397;BME280;1209;48.410;9.054;2024-02-14T03:39:04;96612.25;;;4.39;100.00
2397;BME280;1209;48.410;9.054;2024-02-14T03:41:30;96608.38;;;3.92;100.00
2397;BME280;1209;48.410;9.054;2024-02-14T03:43:56;96607.13;;;3.86;100.00
2397;BME280;1209;48.410;9.054;2024-02-14T03:46:26;96613.06;;;3.98;100.00
2397;BME280;1209;48.410;9.054;2024-02-14T03:48:51;96614.31;;;3.83;100.00
2397;BME280;1209;48.410;9.054;2024-02-14T03:51:18;96620.69;;;3.99;100.00
2397;BME280;1209;48.410;9.054;2024-02-14T03:53:44;96618.22;;;3.98;100.00
2397;BME280;1209;48.410;9.054;2024-02-14T03:56:09;96619.84;;;3.99;100.00
2397;BME280;1209;48.410;9.054;2024-02-14T03:58:35;96625.22;;;4.07;100.00
2397;BME280;1209;48.410;9.054;2024-02-14T04:01:03;96623.50;;;3.96;100.00
2397;BME280;1209;48.410;9.054;2024-02-14T04:03:28;96624.09;;;4.00;100.00
2397;BME280;1209;48.410;9.054;2024-02-14T04:05:54;96624.53;;;4.05;100.00
2397;BME280;1209;48.410;9.054;2024-02-14T04:08:19;96617.47;;;4.07;100.00
2397;BME280;1209;48.410;9.054;2024-02-14T04:10:44;96615.31;;;4.12;100.00
2397;BME280;1209;48.410;9.054;2024-02-14T04:13:11;96629.75;;;4.15;100.00
2397;BME280;1209;48.410;9.054;2024-02-14T04:15:36;96623.06;;;4.12;100.00
2397;BME280;1209;48.410;9.054;2024-02-14T04:18:01;96620.69;;;4.20;100.00
2397;BME280;1209;48.410;9.054;2024-02-14T04:20:28;96627.06;;;4.37;100.00
2397;BME280;1209;48.410;9.054;2024-02-14T04:22:54;96622.28;;;4.32;100.00
2397;BME280;1209;48.410;9.054;2024-02-14T04:25:19;96609.16;;;4.03;100.00
2397;BME280;1209;48.410;9.054;2024-02-14T04:27:44;96606.19;;;4.08;100.00
2397;BME280;1209;48.410;9.054;2024-02-14T04:30:10;96596.28;;;4.34;100.00
2397;BME280;1209;48.410;9.054;2024-02-14T04:32:36;96599.06;;;4.21;100.00
2397;BME280;1209;48.410;9.054;2024-02-14T04:35:01;96600.66;;;4.33;100.00
2397;BME280;1209;48.410;9.054;2024-02-14T04:37:26;96614.69;;;4.40;100.00
2397;BME280;1209;48.410;9.054;2024-02-14T04:39:51;96617.00;;;4.23;100.00
2397;BME280;1209;48.410;9.054;2024-02-14T04:42:17;96641.19;;;4.33;100.00
2397;BME280;1209;48.410;9.054;2024-02-14T04:44:42;96640.34;;;4.11;100.00
2397;BME280;1209;48.410;9.054;2024-02-14T04:47:08;96650.88;;;4.20;100.00
2397;BME280;1209;48.410;9.054;2024-02-14T04:49:35;96647.97;;;4.13;100.00
2397;BME280;1209;48.410;9.054;2024-02-14T04:52:00;96660.13;;;4.22;100.00
2397;BME280;1209;48.410;9.054;2024-02-14T04:54:25;96659.78;;;4.27;100.00
2397;BME280;1209;48.410;9.054;2024-02-14T04:56:51;96657.50;;;4.13;100.00
2397;BME280;1209;48.410;9.054;2024-02-14T04:59:16;96674.06;;;4.10;100.00
2397;BME280;1209;48.410;9.054;2024-02-14T05:01:41;96669.06;;;3.97;100.00
2397;BME280;1209;48.410;9.054;2024-02-14T05:04:06;96667.09;;;3.90;100.00
2397;BME280;1209;48.410;9.054;2024-02-14T05:06:32;96670.31;;;3.82;100.00
2397;BME280;1209;48.410;9.054;2024-02-14T05:08:58;96673.00;;;3.81;100.00
2397;BME280;1209;48.410;9.054;2024-02-14T05:11:23;96668.25;;;3.97;100.00
2397;BME280;1209;48.410;9.054;2024-02-14T05:13:49;96682.50;;;4.12;100.00
2397;BME280;1209;48.410;9.054;2024-02-14T05:16:20;96670.59;;;4.00;100.00
2397;BME280;1209;48.410;9.054;2024-02-14T05:18:45;96672.03;;;3.93;100.00
2397;BME280;1209;48.410;9.054;2024-02-14T05:21:11;96662.84;;;4.00;100.00
2397;BME280;1209;48.410;9.054;2024-02-14T05:23:36;96668.56;;;4.03;100.00
2397;BME280;1209;48.410;9.054;2024-02-14T05:26:03;96674.38;;;4.17;100.00
2397;BME280;1209;48.410;9.054;2024-02-14T05:28:29;96663.78;;;4.20;100.00
2397;BME280;1209;48.410;9.054;2024-02-14T05:30:54;96665.31;;;4.22;100.00
2397;BME280;1209;48.410;9.054;2024-02-14T05:33:20;96655.78;;;4.23;100.00
2397;BME280;1209;48.410;9.054;2024-02-14T05:35:51;96652.59;;;4.30;100.00
2397;BME280;1209;48.410;9.054;2024-02-14T05:38:17;96654.69;;;4.36;100.00
2397;BME280;1209;48.410;9.054;2024-02-14T05:40:45;96646.53;;;4.41;100.00
2397;BME280;1209;48.410;9.054;2024-02-14T05:43:10;96642.75;;;4.45;100.00
2397;BME280;1209;48.410;9.054;2024-02-14T05:45:36;96649.34;;;4.59;100.00
2397;BME280;1209;48.410;9.054;2024-02-14T05:48:01;96647.47;;;4.61;100.00
2397;BME280;1209;48.410;9.054;2024-02-14T05:50:27;96645.94;;;4.58;100.00
2397;BME280;1209;48.410;9.054;2024-02-14T05:52:53;96653.31;;;4.63;100.00
2397;BME280;1209;48.410;9.054;2024-02-14T05:55:18;96633.91;;;4.48;100.00
2397;BME280;1209;48.410;9.054;2024-02-14T05:57:43;96646.97;;;4.46;100.00
2397;BME280;1209;48.410;9.054;2024-02-14T06:00:09;96635.72;;;4.57;100.00
2397;BME280;1209;48.410;9.054;2024-02-14T06:02:35;96642.53;;;4.58;100.00
2397;BME280;1209;48.410;9.054;2024-02-14T06:05:01;96639.81;;;4.59;100.00
2397;BME280;1209;48.410;9.054;2024-02-14T06:07:26;96639.91;;;4.48;100.00
2397;BME280;1209;48.410;9.054;2024-02-14T06:09:51;96623.41;;;4.39;100.00
2397;BME280;1209;48.410;9.054;2024-02-14T06:12:16;96630.00;;;4.53;100.00
2397;BME280;1209;48.410;9.054;2024-02-14T06:14:42;96630.16;;;4.61;100.00
2397;BME280;1209;48.410;9.054;2024-02-14T06:17:07;96641.53;;;4.49;100.00
2397;BME280;1209;48.410;9.054;2024-02-14T06:19:32;96629.56;;;4.48;100.00
2397;BME280;1209;48.410;9.054;2024-02-14T06:22:00;96637.31;;;4.48;100.00
2397;BME280;1209;48.410;9.054;2024-02-14T06:24:25;96632.44;;;4.55;100.00
2397;BME280;1209;48.410;9.054;2024-02-14T06:26:50;96629.09;;;4.64;100.00
2397;BME280;1209;48.410;9.054;2024-02-14T06:29:15;96634.06;;;4.77;100.00
2397;BME280;1209;48.410;9.054;2024-02-14T06:31:41;96639.88;;;4.69;100.00
2397;BME280;1209;48.410;9.054;2024-02-14T06:34:07;96650.16;;;4.80;100.00
2397;BME280;1209;48.410;9.054;2024-02-14T06:36:33;96645.03;;;4.69;100.00
2397;BME280;1209;48.410;9.054;2024-02-14T06:38:58;96651.09;;;4.79;100.00
2397;BME280;1209;48.410;9.054;2024-02-14T06:41:24;96649.09;;;4.83;100.00
2397;BME280;1209;48.410;9.054;2024-02-14T06:43:49;96643.00;;;4.93;100.00
2397;BME280;1209;48.410;9.054;2024-02-14T06:46:15;96642.22;;;5.02;100.00
2397;BME280;1209;48.410;9.054;2024-02-14T06:48:40;96636.25;;;5.12;100.00
2397;BME280;1209;48.410;9.054;2024-02-14T06:51:06;96638.50;;;5.35;100.00
2397;BME280;1209;48.410;9.054;2024-02-14T06:53:32;96637.56;;;5.36;100.00
2397;BME280;1209;48.410;9.054;2024-02-14T06:55:57;96643.00;;;5.43;100.00
2397;BME280;1209;48.410;9.054;2024-02-14T06:58:22;96647.63;;;5.40;100.00
2397;BME280;1209;48.410;9.054;2024-02-14T07:00:48;96650.53;;;5.56;100.00
2397;BME280;1209;48.410;9.054;2024-02-14T07:03:13;96641.41;;;5.61;100.00
2397;BME280;1209;48.410;9.054;2024-02-14T07:05:38;96646.16;;;5.56;100.00
2397;BME280;1209;48.410;9.054;2024-02-14T07:08:04;96650.16;;;5.70;100.00
2397;BME280;1209;48.410;9.054;2024-02-14T07:10:30;96652.84;;;5.59;100.00
2397;BME280;1209;48.410;9.054;2024-02-14T07:12:55;96657.34;;;5.47;100.00
2397;BME280;1209;48.410;9.054;2024-02-14T07:15:20;96665.91;;;5.48;100.00
2397;BME280;1209;48.410;9.054;2024-02-14T07:17:46;96674.25;;;5.61;100.00
2397;BME280;1209;48.410;9.054;2024-02-14T07:20:11;96670.28;;;5.57;100.00
2397;BME280;1209;48.410;9.054;2024-02-14T07:22:37;96683.13;;;5.58;100.00
2397;BME280;1209;48.410;9.054;2024-02-14T07:25:03;96679.84;;;5.66;100.00
2397;BME280;1209;48.410;9.054;2024-02-14T07:27:30;96696.94;;;5.78;100.00
2397;BME280;1209;48.410;9.054;2024-02-14T07:29:55;96700.56;;;5.66;100.00
2397;BME280;1209;48.410;9.054;2024-02-14T07:32:20;96706.81;;;5.94;100.00
2397;BME280;1209;48.410;9.054;2024-02-14T07:34:46;96703.41;;;6.03;100.00
2397;BME280;1209;48.410;9.054;2024-02-14T07:37:12;96701.84;;;5.81;100.00
2397;BME280;1209;48.410;9.054;2024-02-14T07:39:37;96699.59;;;5.97;100.00
2397;BME280;1209;48.410;9.054;2024-02-14T07:42:03;96696.72;;;5.91;100.00
2397;BME280;1209;48.410;9.054;2024-02-14T07:44:28;96702.03;;;5.99;100.00
2397;BME280;1209;48.410;9.054;2024-02-14T07:46:54;96702.03;;;6.09;100.00
2397;BME280;1209;48.410;9.054;2024-02-14T07:49:19;96704.78;;;6.26;100.00
2397;BME280;1209;48.410;9.054;2024-02-14T07:51:45;96707.78;;;6.22;100.00
2397;BME280;1209;48.410;9.054;2024-02-14T07:54:10;96700.56;;;6.35;100.00
2397;BME280;1209;48.410;9.054;2024-02-14T07:56:36;96704.09;;;6.44;100.00
2397;BME280;1209;48.410;9.054;2024-02-14T07:59:01;96705.72;;;6.54;100.00
2397;BME280;1209;48.410;9.054;2024-02-14T08:01:27;96708.31;;;6.64;100.00
2397;BME280;1209;48.410;9.054;2024-02-14T08:03:53;96706.38;;;6.76;100.00
2397;BME280;1209;48.410;9.054;2024-02-14T08:06:19;96713.31;;;6.85;100.00
2397;BME280;1209;48.410;9.054;2024-02-14T08:08:44;96709.75;;;6.95;100.00
2397;BME280;1209;48.410;9.054;2024-02-14T08:11:10;96716.53;;;7.06;100.00
2397;BME280;1209;48.410;9.054;2024-02-14T08:13:35;96717.22;;;7.18;100.00
2397;BME280;1209;48.410;9.054;2024-02-14T08:16:02;96716.75;;;7.32;100.00
2397;BME280;1209;48.410;9.054;2024-02-14T08:18:27;96711.72;;;7.48;100.00
2397;BME280;1209;48.410;9.054;2024-02-14T08:20:53;96708.34;;;7.93;100.00
2397;BME280;1209;48.410;9.054;2024-02-14T08:23:18;96710.66;;;8.32;100.00
2397;BME280;1209;48.410;9.054;2024-02-14T08:25:45;96711.81;;;8.65;100.00
2397;BME280;1209;48.410;9.054;2024-02-14T08:28:10;96709.81;;;8.84;100.00
2397;BME280;1209;48.410;9.054;2024-02-14T08:30:36;96712.56;;;9.01;100.00
2397;BME280;1209;48.410;9.054;2024-02-14T08:33:03;96712.22;;;9.30;100.00
2397;BME280;1209;48.410;9.054;2024-02-14T08:35:28;96710.88;;;9.52;100.00
2397;BME280;1209;48.410;9.054;2024-02-14T08:37:53;96721.38;;;9.76;100.00
2397;BME280;1209;48.410;9.054;2024-02-14T08:40:18;96731.41;;;9.97;100.00
2397;BME280;1209;48.410;9.054;2024-02-14T08:42:44;96730.78;;;10.19;100.00
2397;BME280;1209;48.410;9.054;2024-02-14T08:45:09;96732.31;;;10.30;100.00
2397;BME280;1209;48.410;9.054;2024-02-14T08:47:35;96727.41;;;10.27;100.00
2397;BME280;1209;48.410;9.054;2024-02-14T08:50:01;96729.38;;;10.33;100.00
2397;BME280;1209;48.410;9.054;2024-02-14T08:52:28;96735.91;;;10.37;100.00
2397;BME280;1209;48.410;9.054;2024-02-14T08:54:53;96738.06;;;10.50;100.00
2397;BME280;1209;48.410;9.054;2024-02-14T08:57:18;96730.38;;;10.56;100.00
2397;BME280;1209;48.410;9.054;2024-02-14T08:59:45;96741.47;;;10.58;100.00
2397;BME280;1209;48.410;9.054;2024-02-14T09:02:12;96741.00;;;10.63;100.00
2397;BME280;1209;48.410;9.054;2024-02-14T09:04:38;96743.94;;;10.68;100.00
2397;BME280;1209;48.410;9.054;2024-02-14T09:07:04;96735.75;;;10.71;100.00
2397;BME280;1209;48.410;9.054;2024-02-14T09:09:29;96745.06;;;10.65;100.00
2397;BME280;1209;48.410;9.054;2024-02-14T09:11:54;96759.94;;;10.73;100.00
2397;BME280;1209;48.410;9.054;2024-02-14T09:14:20;96766.63;;;10.67;100.00
2397;BME280;1209;48.410;9.054;2024-02-14T09:16:45;96763.53;;;10.72;100.00
2397;BME280;1209;48.410;9.054;2024-02-14T09:19:11;96768.25;;;10.68;100.00
2397;BME280;1209;48.410;9.054;2024-02-14T09:21:37;96758.63;;;10.69;100.00
2397;BME280;1209;48.410;9.054;2024-02-14T09:24:03;96756.66;;;10.71;100.00
2397;BME280;1209;48.410;9.054;2024-02-14T09:26:29;96760.25;;;10.70;100.00
2397;BME280;1209;48.410;9.054;2024-02-14T09:28:55;96769.06;;;10.69;100.00
2397;BME280;1209;48.410;9.054;2024-02-14T09:31:20;96763.34;;;10.82;100.00
2397;BME280;1209;48.410;9.054;2024-02-14T09:33:47;96765.81;;;10.83;100.00
2397;BME280;1209;48.410;9.054;2024-02-14T09:36:13;96761.91;;;10.95;100.00
2397;BME280;1209;48.410;9.054;2024-02-14T09:38:39;96755.03;;;11.02;100.00
2397;BME280;1209;48.410;9.054;2024-02-14T09:41:15;96760.41;;;11.09;100.00
2397;BME280;1209;48.410;9.054;2024-02-14T09:43:44;96766.28;;;11.11;100.00
2397;BME280;1209;48.410;9.054;2024-02-14T09:46:14;96764.97;;;11.15;100.00
2397;BME280;1209;48.410;9.054;2024-02-14T09:48:44;96764.13;;;11.47;100.00
2397;BME280;1209;48.410;9.054;2024-02-14T09:51:10;96754.03;;;11.91;100.00
2397;BME280;1209;48.410;9.054;2024-02-14T09:53:38;96755.16;;;12.20;100.00
2397;BME280;1209;48.410;9.054;2024-02-14T09:56:04;96757.28;;;12.24;100.00
2397;BME280;1209;48.410;9.054;2024-02-14T09:58:30;96763.13;;;12.57;100.00
2397;BME280;1209;48.410;9.054;2024-02-14T10:00:56;96760.34;;;12.36;100.00
2397;BME280;1209;48.410;9.054;2024-02-14T10:03:21;96759.47;;;12.13;100.00
2397;BME280;1209;48.410;9.054;2024-02-14T10:05:46;96769.50;;;12.01;100.00
2397;BME280;1209;48.410;9.054;2024-02-14T10:08:14;96766.91;;;12.01;100.00
2397;BME280;1209;48.410;9.054;2024-02-14T10:10:39;96756.59;;;12.31;100.00
2397;BME280;1209;48.410;9.054;2024-02-14T10:13:05;96752.72;;;12.49;100.00
2397;BME280;1209;48.410;9.054;2024-02-14T10:15:31;96756.19;;;12.65;100.00
2397;BME280;1209;48.410;9.054;2024-02-14T10:18:00;96762.19;;;12.96;100.00
2397;BME280;1209;48.410;9.054;2024-02-14T10:20:26;96763.22;;;13.33;100.00
2397;BME280;1209;48.410;9.054;2024-02-14T10:22:51;96765.28;;;13.37;100.00
2397;BME280;1209;48.410;9.054;2024-02-14T10:25:17;96762.94;;;13.42;100.00
2397;BME280;1209;48.410;9.054;2024-02-14T10:27:44;96754.69;;;13.31;100.00
2397;BME280;1209;48.410;9.054;2024-02-14T10:30:09;96750.28;;;13.08;100.00
2397;BME280;1209;48.410;9.054;2024-02-14T10:32:36;96753.31;;;13.20;100.00
2397;BME280;1209;48.410;9.054;2024-02-14T10:35:05;96744.66;;;12.97;100.00
2397;BME280;1209;48.410;9.054;2024-02-14T10:37:34;96759.84;;;13.01;100.00
2397;BME280;1209;48.410;9.054;2024-02-14T10:40:01;96756.44;;;13.15;100.00
2397;BME280;1209;48.410;9.054;2024-02-14T10:42:27;96746.56;;;13.26;100.00
2397;BME280;1209;48.410;9.054;2024-02-14T10:44:54;96751.91;;;13.32;100.00
2397;BME280;1209;48.410;9.054;2024-02-14T10:47:30;96752.34;;;13.36;100.00
2397;BME280;1209;48.410;9.054;2024-02-14T10:50:00;96743.50;;;13.37;100.00
2397;BME280;1209;48.410;9.054;2024-02-14T10:52:30;96752.44;;;13.57;100.00
2397;BME280;1209;48.410;9.054;2024-02-14T10:54:56;96746.19;;;13.29;100.00
2397;BME280;1209;48.410;9.054;2024-02-14T10:57:25;96742.22;;;13.33;100.00
2397;BME280;1209;48.410;9.054;2024-02-14T10:59:51;96754.75;;;13.22;100.00
2397;BME280;1209;48.410;9.054;2024-02-14T11:02:18;96746.66;;;13.09;100.00
2397;BME280;1209;48.410;9.054;2024-02-14T11:04:45;96752.63;;;13.03;100.00
2397;BME280;1209;48.410;9.054;2024-02-14T11:07:10;96747.94;;;13.13;100.00
2397;BME280;1209;48.410;9.054;2024-02-14T11:09:36;96762.50;;;13.16;100.00
2397;BME280;1209;48.410;9.054;2024-02-14T11:12:02;96748.25;;;13.18;100.00
2397;BME280;1209;48.410;9.054;2024-02-14T11:14:32;96751.69;;;13.19;100.00
2397;BME280;1209;48.410;9.054;2024-02-14T11:17:09;96744.25;;;13.22;100.00
2397;BME280;1209;48.410;9.054;2024-02-14T11:19:35;96751.03;;;13.17;100.00
2397;BME280;1209;48.410;9.054;2024-02-14T11:22:18;96748.19;;;13.04;100.00
2397;BME280;1209;48.410;9.054;2024-02-14T11:24:46;96747.47;;;13.10;100.00
2397;BME280;1209;48.410;9.054;2024-02-14T11:27:12;96744.00;;;13.17;100.00
2397;BME280;1209;48.410;9.054;2024-02-14T11:29:51;96742.22;;;13.33;100.00
2397;BME280;1209;48.410;9.054;2024-02-14T11:32:17;96747.28;;;13.64;100.00
2397;BME280;1209;48.410;9.054;2024-02-14T11:34:43;96749.19;;;13.70;100.00
2397;BME280;1209;48.410;9.054;2024-02-14T11:37:09;96749.94;;;13.78;100.00
2397;BME280;1209;48.410;9.054;2024-02-14T11:39:34;96759.06;;;13.82;100.00
2397;BME280;1209;48.410;9.054;2024-02-14T11:42:00;96757.72;;;13.72;100.00
2397;BME280;1209;48.410;9.054;2024-02-14T11:44:25;96757.59;;;13.95;100.00
2397;BME280;1209;48.410;9.054;2024-02-14T11:46:51;96753.97;;;13.96;100.00
2397;BME280;1209;48.410;9.054;2024-02-14T11:49:17;96755.06;;;13.86;100.00
2397;BME280;1209;48.410;9.054;2024-02-14T11:51:42;96754.91;;;13.73;100.00
2397;BME280;1209;48.410;9.054;2024-02-14T11:54:07;96751.09;;;13.91;100.00
2397;BME280;1209;48.410;9.054;2024-02-14T11:56:38;96737.91;;;14.05;100.00
2397;BME280;1209;48.410;9.054;2024-02-14T11:59:05;96747.16;;;14.01;100.00
2397;BME280;1209;48.410;9.054;2024-02-14T12:01:34;96758.06;;;13.83;100.00
2397;BME280;1209;48.410;9.054;2024-02-14T12:04:01;96753.19;;;13.80;100.00
2397;BME280;1209;48.410;9.054;2024-02-14T12:06:30;96749.97;;;14.00;100.00
2397;BME280;1209;48.410;9.054;2024-02-14T12:09:02;96752.41;;;14.01;100.00
2397;BME280;1209;48.410;9.054;2024-02-14T12:11:31;96753.63;;;13.69;100.00
2397;BME280;1209;48.410;9.054;2024-02-14T12:14:01;96746.75;;;13.53;100.00
2397;BME280;1209;48.410;9.054;2024-02-14T12:16:26;96747.56;;;13.69;100.00
2397;BME280;1209;48.410;9.054;2024-02-14T12:19:03;96760.03;;;13.67;100.00
2397;BME280;1209;48.410;9.054;2024-02-14T12:21:33;96758.22;;;13.67;100.00
2397;BME280;1209;48.410;9.054;2024-02-14T12:24:00;96760.50;;;13.70;100.00
2397;BME280;1209;48.410;9.054;2024-02-14T12:26:25;96756.88;;;13.71;100.00
2397;BME280;1209;48.410;9.054;2024-02-14T12:28:52;96745.50;;;13.79;100.00
2397;BME280;1209;48.410;9.054;2024-02-14T12:31:22;96749.47;;;13.75;100.00
2397;BME280;1209;48.410;9.054;2024-02-14T12:33:48;96747.47;;;13.77;100.00
2397;BME280;1209;48.410;9.054;2024-02-14T12:36:13;96740.13;;;13.87;100.00
2397;BME280;1209;48.410;9.054;2024-02-14T12:38:38;96738.78;;;13.91;100.00
2397;BME280;1209;48.410;9.054;2024-02-14T12:41:03;96741.31;;;13.84;100.00
2397;BME280;1209;48.410;9.054;2024-02-14T12:43:29;96741.56;;;13.90;100.00
2397;BME280;1209;48.410;9.054;2024-02-14T12:45:54;96734.22;;;14.00;100.00
2397;BME280;1209;48.410;9.054;2024-02-14T12:48:24;96734.38;;;14.13;100.00
2397;BME280;1209;48.410;9.054;2024-02-14T12:50:53;96732.94;;;14.10;100.00
2397;BME280;1209;48.410;9.054;2024-02-14T12:53:19;96738.91;;;14.04;100.00
2397;BME280;1209;48.410;9.054;2024-02-14T12:55:46;96731.16;;;13.96;100.00
2397;BME280;1209;48.410;9.054;2024-02-14T12:58:12;96736.22;;;13.98;100.00
2397;BME280;1209;48.410;9.054;2024-02-14T13:00:37;96727.22;;;14.07;100.00
2397;BME280;1209;48.410;9.054;2024-02-14T13:03:03;96727.94;;;14.15;100.00
2397;BME280;1209;48.410;9.054;2024-02-14T13:05:29;96746.03;;;14.25;100.00
2397;BME280;1209;48.410;9.054;2024-02-14T13:07:55;96730.13;;;14.48;100.00
2397;BME280;1209;48.410;9.054;2024-02-14T13:10:20;96726.25;;;14.65;100.00